sensor_id;sensor_type;location;lat;lon;timestamp;P1;durP1;ratioP1;P2;durP2;ratioP2
6300;SDS011;3183;51.010;6.898;2023-04-15T00:02:14;16.57;;;5.97;;
6300;SDS011;3183;51.010;6.898;2023-04-15T00:04:42;9.87;;;5.10;;
6300;SDS011;3183;51.010;6.898;2023-04-15T00:07:09;15.87;;;6.03;;
6300;SDS011;3183;51.010;6.898;2023-04-15T00:09:37;14.73;;;4.60;;
6300;SDS011;3183;51.010;6.898;2023-04-15T00:12:04;14.40;;;6.57;;
6300;SDS011;3183;51.010;6.898;2023-04-15T00:14:33;10.10;;;4.00;;
6300;SDS011;3183;51.010;6.898;2023-04-15T00:17:01;10.50;;;3.40;;
6300;SDS011;3183;51.010;6.898;2023-04-15T00:19:28;8.70;;;4.10;;
6300;SDS011;3183;51.010;6.898;2023-04-15T00:21:55;6.70;;;3.57;;
6300;SDS011;3183;51.010;6.898;2023-04-15T00:24:22;7.80;;;3.50;;
6300;SDS011;3183;51.010;6.898;2023-04-15T00:26:50;7.00;;;4.10;;
6300;SDS011;3183;51.010;6.898;2023-04-15T00:29:17;10.40;;;4.37;;
6300;SDS011;3183;51.010;6.898;2023-04-15T00:31:46;12.40;;;4.50;;
6300;SDS011;3183;51.010;6.898;2023-04-15T00:34:13;5.27;;;3.40;;
6300;SDS011;3183;51.010;6.898;2023-04-15T00:36:40;8.77;;;4.00;;
6300;SDS011;3183;51.010;6.898;2023-04-15T00:39:07;8.87;;;3.80;;
6300;SDS011;3183;51.010;6.898;2023-04-15T00:41:35;6.73;;;3.63;;
6300;SDS011;3183;51.010;6.898;2023-04-15T00:44:04;7.13;;;4.10;;
6300;SDS011;3183;51.010;6.898;2023-04-15T00:46:31;13.10;;;3.87;;
6300;SDS011;3183;51.010;6.898;2023-04-15T00:49:00;13.77;;;3.70;;
6300;SDS011;3183;51.010;6.898;2023-04-15T00:51:28;16.23;;;4.43;;
6300;SDS011;3183;51.010;6.898;2023-04-15T00:53:57;16.60;;;5.40;;
6300;SDS011;3183;51.010;6.898;2023-04-15T00:56:24;5.17;;;3.50;;
6300;SDS011;3183;51.010;6.898;2023-04-15T00:58:52;7.57;;;3.85;;
6300;SDS011;3183;51.010;6.898;2023-04-15T01:01:20;5.10;;;3.57;;
6300;SDS011;3183;51.010;6.898;2023-04-15T01:03:47;9.77;;;3.63;;
6300;SDS011;3183;51.010;6.898;2023-04-15T01:06:17;8.07;;;3.83;;
6300;SDS011;3183;51.010;6.898;2023-04-15T01:08:44;4.10;;;3.13;;
6300;SDS011;3183;51.010;6.898;2023-04-15T01:11:11;7.57;;;3.93;;
6300;SDS011;3183;51.010;6.898;2023-04-15T01:13:38;10.93;;;3.60;;
6300;SDS011;3183;51.010;6.898;2023-04-15T01:16:06;10.57;;;4.13;;
6300;SDS011;3183;51.010;6.898;2023-04-15T01:18:33;5.50;;;3.37;;
6300;SDS011;3183;51.010;6.898;2023-04-15T01:21:01;8.73;;;3.73;;
6300;SDS011;3183;51.010;6.898;2023-04-15T01:23:30;9.40;;;4.40;;
6300;SDS011;3183;51.010;6.898;2023-04-15T01:25:59;8.13;;;4.13;;
6300;SDS011;3183;51.010;6.898;2023-04-15T01:28:26;11.07;;;4.30;;
6300;SDS011;3183;51.010;6.898;2023-04-15T01:31:03;13.60;;;3.70;;
6300;SDS011;3183;51.010;6.898;2023-04-15T01:33:31;7.80;;;4.40;;
6300;SDS011;3183;51.010;6.898;2023-04-15T01:35:58;7.37;;;3.60;;
6300;SDS011;3183;51.010;6.898;2023-04-15T01:38:25;9.70;;;5.03;;
6300;SDS011;3183;51.010;6.898;2023-04-15T01:40:53;10.00;;;4.00;;
6300;SDS011;3183;51.010;6.898;2023-04-15T01:43:21;7.57;;;3.80;;
6300;SDS011;3183;51.010;6.898;2023-04-15T01:45:48;7.27;;;3.80;;
6300;SDS011;3183;51.010;6.898;2023-04-15T01:48:15;8.33;;;4.00;;
6300;SDS011;3183;51.010;6.898;2023-04-15T01:50:44;5.27;;;3.57;;
6300;SDS011;3183;51.010;6.898;2023-04-15T01:53:11;7.80;;;4.57;;
6300;SDS011;3183;51.010;6.898;2023-04-15T01:55:38;7.63;;;3.83;;
6300;SDS011;3183;51.010;6.898;2023-04-15T01:58:05;6.60;;;3.87;;
6300;SDS011;3183;51.010;6.898;2023-04-15T02:00:34;8.83;;;3.77;;
6300;SDS011;3183;51.010;6.898;2023-04-15T02:03:01;7.87;;;4.40;;
6300;SDS011;3183;51.010;6.898;2023-04-15T02:05:29;13.47;;;3.93;;
6300;SDS011;3183;51.010;6.898;2023-04-15T02:07:56;14.00;;;4.83;;
6300;SDS011;3183;51.010;6.898;2023-04-15T02:10:23;4.83;;;3.70;;
6300;SDS011;3183;51.010;6.898;2023-04-15T02:12:50;10.10;;;4.90;;
6300;SDS011;3183;51.010;6.898;2023-04-15T02:15:18;8.70;;;4.30;;
6300;SDS011;3183;51.010;6.898;2023-04-15T02:17:47;13.10;;;4.20;;
6300;SDS011;3183;51.010;6.898;2023-04-15T02:20:15;8.50;;;4.23;;
6300;SDS011;3183;51.010;6.898;2023-04-15T02:22:42;6.67;;;3.47;;
6300;SDS011;3183;51.010;6.898;2023-04-15T02:25:09;4.73;;;3.77;;
6300;SDS011;3183;51.010;6.898;2023-04-15T02:27:37;7.03;;;3.80;;
6300;SDS011;3183;51.010;6.898;2023-04-15T02:30:04;8.77;;;4.13;;
6300;SDS011;3183;51.010;6.898;2023-04-15T02:32:32;8.67;;;4.60;;
6300;SDS011;3183;51.010;6.898;2023-04-15T02:35:02;10.40;;;4.10;;
6300;SDS011;3183;51.010;6.898;2023-04-15T02:37:29;8.90;;;3.80;;
6300;SDS011;3183;51.010;6.898;2023-04-15T02:39:59;8.90;;;4.30;;
6300;SDS011;3183;51.010;6.898;2023-04-15T02:42:26;9.90;;;4.00;;
6300;SDS011;3183;51.010;6.898;2023-04-15T02:44:54;14.03;;;3.63;;
6300;SDS011;3183;51.010;6.898;2023-04-15T02:47:22;6.73;;;3.83;;
6300;SDS011;3183;51.010;6.898;2023-04-15T02:49:49;7.23;;;4.07;;
6300;SDS011;3183;51.010;6.898;2023-04-15T02:52:17;6.05;;;4.05;;
6300;SDS011;3183;51.010;6.898;2023-04-15T02:54:45;8.53;;;3.90;;
6300;SDS011;3183;51.010;6.898;2023-04-15T02:57:12;9.77;;;4.00;;
6300;SDS011;3183;51.010;6.898;2023-04-15T02:59:39;6.47;;;3.93;;
6300;SDS011;3183;51.010;6.898;2023-04-15T03:02:06;11.70;;;4.13;;
6300;SDS011;3183;51.010;6.898;2023-04-15T03:04:33;11.43;;;4.40;;
6300;SDS011;3183;51.010;6.898;2023-04-15T03:07:00;14.60;;;3.90;;
6300;SDS011;3183;51.010;6.898;2023-04-15T03:09:29;8.83;;;4.30;;
6300;SDS011;3183;51.010;6.898;2023-04-15T03:11:57;6.80;;;4.50;;
6300;SDS011;3183;51.010;6.898;2023-04-15T03:14:24;6.05;;;3.90;;
6300;SDS011;3183;51.010;6.898;2023-04-15T03:16:51;8.40;;;4.20;;
6300;SDS011;3183;51.010;6.898;2023-04-15T03:19:18;5.73;;;3.40;;
6300;SDS011;3183;51.010;6.898;2023-04-15T03:21:45;10.23;;;4.40;;
6300;SDS011;3183;51.010;6.898;2023-04-15T03:24:12;9.37;;;4.57;;
6300;SDS011;3183;51.010;6.898;2023-04-15T03:26:41;7.10;;;3.80;;
6300;SDS011;3183;51.010;6.898;2023-04-15T03:29:08;10.70;;;4.87;;
6300;SDS011;3183;51.010;6.898;2023-04-15T03:31:35;10.53;;;4.77;;
6300;SDS011;3183;51.010;6.898;2023-04-15T03:34:02;10.93;;;5.70;;
6300;SDS011;3183;51.010;6.898;2023-04-15T03:36:29;12.17;;;6.63;;
6300;SDS011;3183;51.010;6.898;2023-04-15T03:38:57;17.80;;;5.60;;
6300;SDS011;3183;51.010;6.898;2023-04-15T03:41:26;9.87;;;5.40;;
6300;SDS011;3183;51.010;6.898;2023-04-15T03:43:54;11.50;;;6.00;;
6300;SDS011;3183;51.010;6.898;2023-04-15T03:46:21;11.90;;;5.40;;
6300;SDS011;3183;51.010;6.898;2023-04-15T03:48:49;11.13;;;5.90;;
6300;SDS011;3183;51.010;6.898;2023-04-15T03:51:16;12.13;;;6.93;;
6300;SDS011;3183;51.010;6.898;2023-04-15T03:53:43;16.33;;;8.70;;
6300;SDS011;3183;51.010;6.898;2023-04-15T03:56:10;16.00;;;8.20;;
6300;SDS011;3183;51.010;6.898;2023-04-15T03:58:37;14.20;;;7.73;;
6300;SDS011;3183;51.010;6.898;2023-04-15T04:01:06;20.07;;;8.27;;
6300;SDS011;3183;51.010;6.898;2023-04-15T04:03:33;13.93;;;7.93;;
6300;SDS011;3183;51.010;6.898;2023-04-15T04:06:01;15.13;;;7.40;;
6300;SDS011;3183;51.010;6.898;2023-04-15T04:08:28;17.17;;;6.50;;
6300;SDS011;3183;51.010;6.898;2023-04-15T04:10:55;14.97;;;5.87;;
6300;SDS011;3183;51.010;6.898;2023-04-15T04:13:22;14.73;;;6.47;;
6300;SDS011;3183;51.010;6.898;2023-04-15T04:15:50;11.10;;;6.10;;
6300;SDS011;3183;51.010;6.898;2023-04-15T04:18:18;14.13;;;7.20;;
6300;SDS011;3183;51.010;6.898;2023-04-15T04:20:45;19.30;;;9.50;;
6300;SDS011;3183;51.010;6.898;2023-04-15T04:23:12;18.50;;;8.63;;
6300;SDS011;3183;51.010;6.898;2023-04-15T04:25:40;12.70;;;7.03;;
6300;SDS011;3183;51.010;6.898;2023-04-15T04:28:07;13.17;;;7.10;;
6300;SDS011;3183;51.010;6.898;2023-04-15T04:30:35;17.47;;;7.03;;
6300;SDS011;3183;51.010;6.898;2023-04-15T04:33:03;22.30;;;8.90;;
6300;SDS011;3183;51.010;6.898;2023-04-15T04:35:31;14.57;;;7.80;;
6300;SDS011;3183;51.010;6.898;2023-04-15T04:38:01;16.70;;;8.70;;
6300;SDS011;3183;51.010;6.898;2023-04-15T04:40:29;19.10;;;8.43;;
6300;SDS011;3183;51.010;6.898;2023-04-15T04:42:56;14.40;;;8.03;;
6300;SDS011;3183;51.010;6.898;2023-04-15T04:45:23;24.73;;;10.60;;
6300;SDS011;3183;51.010;6.898;2023-04-15T04:47:51;18.97;;;9.67;;
6300;SDS011;3183;51.010;6.898;2023-04-15T04:50:18;20.50;;;8.20;;
6300;SDS011;3183;51.010;6.898;2023-04-15T04:52:46;28.80;;;7.30;;
6300;SDS011;3183;51.010;6.898;2023-04-15T04:55:13;10.50;;;6.90;;
6300;SDS011;3183;51.010;6.898;2023-04-15T04:57:41;11.90;;;6.30;;
6300;SDS011;3183;51.010;6.898;2023-04-15T05:00:08;11.10;;;6.50;;
6300;SDS011;3183;51.010;6.898;2023-04-15T05:02:36;13.60;;;6.77;;
6300;SDS011;3183;51.010;6.898;2023-04-15T05:05:04;11.63;;;6.87;;
6300;SDS011;3183;51.010;6.898;2023-04-15T05:07:31;16.50;;;6.43;;
6300;SDS011;3183;51.010;6.898;2023-04-15T05:10:00;11.33;;;6.53;;
6300;SDS011;3183;51.010;6.898;2023-04-15T05:12:27;17.37;;;7.53;;
6300;SDS011;3183;51.010;6.898;2023-04-15T05:14:54;18.63;;;8.23;;
6300;SDS011;3183;51.010;6.898;2023-04-15T05:17:21;19.00;;;9.60;;
6300;SDS011;3183;51.010;6.898;2023-04-15T05:19:49;19.77;;;8.50;;
6300;SDS011;3183;51.010;6.898;2023-04-15T05:22:17;14.87;;;7.33;;
6300;SDS011;3183;51.010;6.898;2023-04-15T05:24:44;20.88;;;8.88;;
6300;SDS011;3183;51.010;6.898;2023-04-15T05:27:13;14.83;;;7.83;;
6300;SDS011;3183;51.010;6.898;2023-04-15T05:29:40;15.67;;;8.03;;
6300;SDS011;3183;51.010;6.898;2023-04-15T05:32:07;15.27;;;7.90;;
6300;SDS011;3183;51.010;6.898;2023-04-15T05:34:34;29.93;;;12.03;;
6300;SDS011;3183;51.010;6.898;2023-04-15T05:37:01;29.37;;;12.37;;
6300;SDS011;3183;51.010;6.898;2023-04-15T05:39:29;23.97;;;12.23;;
6300;SDS011;3183;51.010;6.898;2023-04-15T05:41:56;22.73;;;9.70;;
6300;SDS011;3183;51.010;6.898;2023-04-15T05:44:25;14.13;;;8.17;;
6300;SDS011;3183;51.010;6.898;2023-04-15T05:46:52;14.23;;;7.30;;
6300;SDS011;3183;51.010;6.898;2023-04-15T05:49:19;9.83;;;6.20;;
6300;SDS011;3183;51.010;6.898;2023-04-15T05:51:46;12.70;;;6.30;;
6300;SDS011;3183;51.010;6.898;2023-04-15T05:54:13;15.90;;;6.90;;
6300;SDS011;3183;51.010;6.898;2023-04-15T05:56:41;8.20;;;4.88;;
6300;SDS011;3183;51.010;6.898;2023-04-15T05:59:08;10.97;;;5.27;;
6300;SDS011;3183;51.010;6.898;2023-04-15T06:01:36;8.52;;;4.63;;
6300;SDS011;3183;51.010;6.898;2023-04-15T06:04:04;8.57;;;4.90;;
6300;SDS011;3183;51.010;6.898;2023-04-15T06:06:31;9.47;;;4.43;;
6300;SDS011;3183;51.010;6.898;2023-04-15T06:08:58;10.53;;;5.07;;
6300;SDS011;3183;51.010;6.898;2023-04-15T06:11:25;9.83;;;4.93;;
6300;SDS011;3183;51.010;6.898;2023-04-15T06:13:52;10.70;;;5.37;;
6300;SDS011;3183;51.010;6.898;2023-04-15T06:16:20;8.07;;;4.93;;
6300;SDS011;3183;51.010;6.898;2023-04-15T06:18:49;8.10;;;5.27;;
6300;SDS011;3183;51.010;6.898;2023-04-15T06:21:16;12.55;;;5.25;;
6300;SDS011;3183;51.010;6.898;2023-04-15T06:23:43;7.47;;;4.60;;
6300;SDS011;3183;51.010;6.898;2023-04-15T06:26:10;7.00;;;5.10;;
6300;SDS011;3183;51.010;6.898;2023-04-15T06:28:38;7.83;;;4.37;;
6300;SDS011;3183;51.010;6.898;2023-04-15T06:31:05;6.70;;;4.77;;
6300;SDS011;3183;51.010;6.898;2023-04-15T06:33:32;12.93;;;5.70;;
6300;SDS011;3183;51.010;6.898;2023-04-15T06:36:00;9.90;;;5.10;;
6300;SDS011;3183;51.010;6.898;2023-04-15T06:38:27;13.03;;;5.00;;
6300;SDS011;3183;51.010;6.898;2023-04-15T06:40:55;8.03;;;4.70;;
6300;SDS011;3183;51.010;6.898;2023-04-15T06:43:22;12.82;;;5.88;;
6300;SDS011;3183;51.010;6.898;2023-04-15T06:45:49;10.07;;;6.03;;
6300;SDS011;3183;51.010;6.898;2023-04-15T06:48:16;13.43;;;6.10;;
6300;SDS011;3183;51.010;6.898;2023-04-15T06:50:44;9.52;;;5.55;;
6300;SDS011;3183;51.010;6.898;2023-04-15T06:53:12;6.20;;;5.40;;
6300;SDS011;3183;51.010;6.898;2023-04-15T06:55:39;6.23;;;4.80;;
6300;SDS011;3183;51.010;6.898;2023-04-15T06:58:07;13.93;;;6.00;;
6300;SDS011;3183;51.010;6.898;2023-04-15T07:00:34;13.23;;;5.10;;
6300;SDS011;3183;51.010;6.898;2023-04-15T07:03:03;13.97;;;5.10;;
6300;SDS011;3183;51.010;6.898;2023-04-15T07:05:30;7.10;;;5.30;;
6300;SDS011;3183;51.010;6.898;2023-04-15T07:07:57;8.13;;;5.40;;
6300;SDS011;3183;51.010;6.898;2023-04-15T07:10:26;10.40;;;5.93;;
6300;SDS011;3183;51.010;6.898;2023-04-15T07:12:53;11.63;;;6.77;;
6300;SDS011;3183;51.010;6.898;2023-04-15T07:15:20;12.07;;;6.97;;
6300;SDS011;3183;51.010;6.898;2023-04-15T07:17:49;14.40;;;9.13;;
6300;SDS011;3183;51.010;6.898;2023-04-15T07:20:16;10.43;;;5.50;;
6300;SDS011;3183;51.010;6.898;2023-04-15T07:22:43;8.77;;;5.93;;
6300;SDS011;3183;51.010;6.898;2023-04-15T07:25:10;13.90;;;5.57;;
6300;SDS011;3183;51.010;6.898;2023-04-15T07:27:39;7.40;;;5.37;;
6300;SDS011;3183;51.010;6.898;2023-04-15T07:30:06;8.97;;;5.87;;
6300;SDS011;3183;51.010;6.898;2023-04-15T07:32:34;8.87;;;5.60;;
6300;SDS011;3183;51.010;6.898;2023-04-15T07:35:02;7.20;;;6.03;;
6300;SDS011;3183;51.010;6.898;2023-04-15T07:37:29;7.10;;;5.53;;
6300;SDS011;3183;51.010;6.898;2023-04-15T07:39:57;6.80;;;5.47;;
6300;SDS011;3183;51.010;6.898;2023-04-15T07:42:24;13.73;;;6.83;;
6300;SDS011;3183;51.010;6.898;2023-04-15T07:44:54;12.33;;;5.40;;
6300;SDS011;3183;51.010;6.898;2023-04-15T07:47:22;7.78;;;5.38;;
6300;SDS011;3183;51.010;6.898;2023-04-15T07:49:49;18.40;;;7.50;;
6300;SDS011;3183;51.010;6.898;2023-04-15T07:52:17;10.10;;;5.13;;
6300;SDS011;3183;51.010;6.898;2023-04-15T07:54:44;7.50;;;5.07;;
6300;SDS011;3183;51.010;6.898;2023-04-15T07:57:11;6.97;;;4.50;;
6300;SDS011;3183;51.010;6.898;2023-04-15T07:59:38;8.23;;;3.90;;
6300;SDS011;3183;51.010;6.898;2023-04-15T08:02:07;5.13;;;3.70;;
6300;SDS011;3183;51.010;6.898;2023-04-15T08:04:34;5.67;;;3.80;;
6300;SDS011;3183;51.010;6.898;2023-04-15T08:07:01;5.30;;;3.30;;
6300;SDS011;3183;51.010;6.898;2023-04-15T08:09:28;4.40;;;3.20;;
6300;SDS011;3183;51.010;6.898;2023-04-15T08:11:56;3.60;;;2.80;;
6300;SDS011;3183;51.010;6.898;2023-04-15T08:14:23;7.03;;;2.97;;
6300;SDS011;3183;51.010;6.898;2023-04-15T08:16:50;6.40;;;3.10;;
6300;SDS011;3183;51.010;6.898;2023-04-15T08:19:18;7.00;;;2.50;;
6300;SDS011;3183;51.010;6.898;2023-04-15T08:21:46;6.20;;;2.50;;
6300;SDS011;3183;51.010;6.898;2023-04-15T08:24:14;14.33;;;8.73;;
6300;SDS011;3183;51.010;6.898;2023-04-15T08:26:41;3.80;;;2.33;;
6300;SDS011;3183;51.010;6.898;2023-04-15T08:29:08;2.80;;;2.20;;
6300;SDS011;3183;51.010;6.898;2023-04-15T08:31:35;3.30;;;2.78;;
6300;SDS011;3183;51.010;6.898;2023-04-15T08:34:02;4.27;;;2.20;;
6300;SDS011;3183;51.010;6.898;2023-04-15T08:36:31;3.63;;;2.50;;
6300;SDS011;3183;51.010;6.898;2023-04-15T08:38:58;4.43;;;2.50;;
6300;SDS011;3183;51.010;6.898;2023-04-15T08:41:27;4.00;;;3.00;;
6300;SDS011;3183;51.010;6.898;2023-04-15T08:44:00;5.70;;;4.57;;
6300;SDS011;3183;51.010;6.898;2023-04-15T08:46:28;7.13;;;3.30;;
6300;SDS011;3183;51.010;6.898;2023-04-15T08:48:56;5.43;;;3.27;;
6300;SDS011;3183;51.010;6.898;2023-04-15T08:51:24;3.83;;;2.10;;
6300;SDS011;3183;51.010;6.898;2023-04-15T08:53:53;3.20;;;2.40;;
6300;SDS011;3183;51.010;6.898;2023-04-15T08:56:21;3.20;;;2.40;;
6300;SDS011;3183;51.010;6.898;2023-04-15T08:58:50;4.77;;;2.60;;
6300;SDS011;3183;51.010;6.898;2023-04-15T09:01:19;4.67;;;2.40;;
6300;SDS011;3183;51.010;6.898;2023-04-15T09:03:46;3.20;;;1.87;;
6300;SDS011;3183;51.010;6.898;2023-04-15T09:06:15;4.30;;;2.50;;
6300;SDS011;3183;51.010;6.898;2023-04-15T09:08:42;2.33;;;1.67;;
6300;SDS011;3183;51.010;6.898;2023-04-15T09:11:11;6.03;;;2.10;;
6300;SDS011;3183;51.010;6.898;2023-04-15T09:13:38;2.40;;;2.20;;
6300;SDS011;3183;51.010;6.898;2023-04-15T09:16:05;4.20;;;2.43;;
6300;SDS011;3183;51.010;6.898;2023-04-15T09:18:34;4.03;;;2.60;;
6300;SDS011;3183;51.010;6.898;2023-04-15T09:21:04;6.93;;;3.15;;
6300;SDS011;3183;51.010;6.898;2023-04-15T09:23:32;5.50;;;2.67;;
6300;SDS011;3183;51.010;6.898;2023-04-15T09:26:00;6.90;;;3.47;;
6300;SDS011;3183;51.010;6.898;2023-04-15T09:28:29;6.37;;;2.90;;
6300;SDS011;3183;51.010;6.898;2023-04-15T09:30:56;3.17;;;2.87;;
6300;SDS011;3183;51.010;6.898;2023-04-15T09:33:23;7.97;;;4.40;;
6300;SDS011;3183;51.010;6.898;2023-04-15T09:35:59;3.23;;;2.70;;
6300;SDS011;3183;51.010;6.898;2023-04-15T09:38:27;6.80;;;3.10;;
6300;SDS011;3183;51.010;6.898;2023-04-15T09:40:55;4.07;;;3.27;;
6300;SDS011;3183;51.010;6.898;2023-04-15T09:43:22;6.77;;;3.80;;
6300;SDS011;3183;51.010;6.898;2023-04-15T09:45:52;4.93;;;3.30;;
6300;SDS011;3183;51.010;6.898;2023-04-15T09:48:20;5.60;;;3.37;;
6300;SDS011;3183;51.010;6.898;2023-04-15T09:50:48;5.53;;;3.97;;
6300;SDS011;3183;51.010;6.898;2023-04-15T09:53:17;5.43;;;3.40;;
6300;SDS011;3183;51.010;6.898;2023-04-15T09:55:45;10.23;;;7.67;;
6300;SDS011;3183;51.010;6.898;2023-04-15T09:58:19;4.10;;;3.33;;
6300;SDS011;3183;51.010;6.898;2023-04-15T10:00:48;4.03;;;3.10;;
6300;SDS011;3183;51.010;6.898;2023-04-15T10:03:17;5.03;;;3.33;;
6300;SDS011;3183;51.010;6.898;2023-04-15T10:05:46;7.97;;;6.20;;
6300;SDS011;3183;51.010;6.898;2023-04-15T10:08:13;4.23;;;3.43;;
6300;SDS011;3183;51.010;6.898;2023-04-15T10:10:41;5.50;;;3.60;;
6300;SDS011;3183;51.010;6.898;2023-04-15T10:13:08;4.17;;;3.50;;
6300;SDS011;3183;51.010;6.898;2023-04-15T10:15:36;4.60;;;3.93;;
6300;SDS011;3183;51.010;6.898;2023-04-15T10:18:03;3.77;;;3.40;;
6300;SDS011;3183;51.010;6.898;2023-04-15T10:20:32;4.70;;;3.60;;
6300;SDS011;3183;51.010;6.898;2023-04-15T10:23:00;6.20;;;4.47;;
6300;SDS011;3183;51.010;6.898;2023-04-15T10:25:27;6.90;;;4.03;;
6300;SDS011;3183;51.010;6.898;2023-04-15T10:27:55;7.30;;;4.13;;
6300;SDS011;3183;51.010;6.898;2023-04-15T10:30:23;5.38;;;3.92;;
6300;SDS011;3183;51.010;6.898;2023-04-15T10:32:50;6.43;;;4.00;;
6300;SDS011;3183;51.010;6.898;2023-04-15T10:35:18;5.40;;;3.93;;
6300;SDS011;3183;51.010;6.898;2023-04-15T10:37:48;4.10;;;3.60;;
6300;SDS011;3183;51.010;6.898;2023-04-15T10:40:25;4.43;;;3.67;;
6300;SDS011;3183;51.010;6.898;2023-04-15T10:42:53;3.97;;;3.47;;
6300;SDS011;3183;51.010;6.898;2023-04-15T10:45:20;9.33;;;4.33;;
6300;SDS011;3183;51.010;6.898;2023-04-15T10:47:50;4.37;;;3.50;;
6300;SDS011;3183;51.010;6.898;2023-04-15T10:50:19;6.70;;;3.90;;
6300;SDS011;3183;51.010;6.898;2023-04-15T10:52:49;5.03;;;4.20;;
6300;SDS011;3183;51.010;6.898;2023-04-15T10:55:20;5.73;;;4.00;;
6300;SDS011;3183;51.010;6.898;2023-04-15T10:57:50;6.00;;;4.47;;
6300;SDS011;3183;51.010;6.898;2023-04-15T11:00:18;4.23;;;3.83;;
6300;SDS011;3183;51.010;6.898;2023-04-15T11:02:46;9.50;;;4.40;;
6300;SDS011;3183;51.010;6.898;2023-04-15T11:05:13;5.80;;;4.30;;
6300;SDS011;3183;51.010;6.898;2023-04-15T11:07:46;4.50;;;4.10;;
6300;SDS011;3183;51.010;6.898;2023-04-15T11:13:01;6.27;;;3.83;;
6300;SDS011;3183;51.010;6.898;2023-04-15T11:15:29;3.70;;;3.40;;
6300;SDS011;3183;51.010;6.898;2023-04-15T11:17:57;5.05;;;3.53;;
6300;SDS011;3183;51.010;6.898;2023-04-15T11:20:24;7.30;;;3.67;;
6300;SDS011;3183;51.010;6.898;2023-04-15T11:22:53;5.10;;;4.37;;
6300;SDS011;3183;51.010;6.898;2023-04-15T11:25:21;6.70;;;4.43;;
6300;SDS011;3183;51.010;6.898;2023-04-15T11:27:48;5.90;;;4.67;;
6300;SDS011;3183;51.010;6.898;2023-04-15T11:30:20;5.20;;;4.70;;
6300;SDS011;3183;51.010;6.898;2023-04-15T11:32:48;5.80;;;4.97;;
6300;SDS011;3183;51.010;6.898;2023-04-15T11:35:16;4.20;;;3.80;;
6300;SDS011;3183;51.010;6.898;2023-04-15T11:37:43;3.93;;;3.53;;
6300;SDS011;3183;51.010;6.898;2023-04-15T11:40:11;22.75;;;4.00;;
6300;SDS011;3183;51.010;6.898;2023-04-15T11:42:39;4.43;;;3.33;;
6300;SDS011;3183;51.010;6.898;2023-04-15T11:45:07;4.18;;;3.78;;
6300;SDS011;3183;51.010;6.898;2023-04-15T11:47:36;3.90;;;3.40;;
6300;SDS011;3183;51.010;6.898;2023-04-15T11:50:12;5.53;;;5.03;;
6300;SDS011;3183;51.010;6.898;2023-04-15T11:52:40;5.90;;;5.40;;
6300;SDS011;3183;51.010;6.898;2023-04-15T11:55:07;5.70;;;5.20;;
6300;SDS011;3183;51.010;6.898;2023-04-15T11:57:35;5.40;;;4.73;;
6300;SDS011;3183;51.010;6.898;2023-04-15T12:00:02;5.57;;;5.07;;
6300;SDS011;3183;51.010;6.898;2023-04-15T12:02:30;5.83;;;4.33;;
6300;SDS011;3183;51.010;6.898;2023-04-15T12:05:03;5.73;;;5.00;;
6300;SDS011;3183;51.010;6.898;2023-04-15T12:07:30;5.80;;;5.20;;
6300;SDS011;3183;51.010;6.898;2023-04-15T12:09:58;6.40;;;5.00;;
6300;SDS011;3183;51.010;6.898;2023-04-15T12:12:26;6.30;;;5.53;;
6300;SDS011;3183;51.010;6.898;2023-04-15T12:14:55;5.33;;;4.80;;
6300;SDS011;3183;51.010;6.898;2023-04-15T12:17:23;5.93;;;5.10;;
6300;SDS011;3183;51.010;6.898;2023-04-15T12:19:54;4.30;;;3.83;;
6300;SDS011;3183;51.010;6.898;2023-04-15T12:22:23;4.93;;;4.30;;
6300;SDS011;3183;51.010;6.898;2023-04-15T12:24:53;6.10;;;4.93;;
6300;SDS011;3183;51.010;6.898;2023-04-15T12:27:24;8.20;;;5.10;;
6300;SDS011;3183;51.010;6.898;2023-04-15T12:29:58;5.73;;;3.97;;
6300;SDS011;3183;51.010;6.898;2023-04-15T12:32:29;4.70;;;4.23;;
6300;SDS011;3183;51.010;6.898;2023-04-15T12:34:56;4.20;;;3.37;;
6300;SDS011;3183;51.010;6.898;2023-04-15T12:37:25;6.17;;;3.60;;
6300;SDS011;3183;51.010;6.898;2023-04-15T12:39:52;4.00;;;3.20;;
6300;SDS011;3183;51.010;6.898;2023-04-15T12:42:19;4.33;;;3.23;;
6300;SDS011;3183;51.010;6.898;2023-04-15T12:44:46;5.90;;;3.40;;
6300;SDS011;3183;51.010;6.898;2023-04-15T12:47:13;5.57;;;3.97;;
6300;SDS011;3183;51.010;6.898;2023-04-15T12:49:40;4.10;;;3.30;;
6300;SDS011;3183;51.010;6.898;2023-04-15T12:52:08;5.07;;;3.70;;
6300;SDS011;3183;51.010;6.898;2023-04-15T12:54:36;8.53;;;3.80;;
6300;SDS011;3183;51.010;6.898;2023-04-15T12:57:03;6.97;;;3.90;;
6300;SDS011;3183;51.010;6.898;2023-04-15T12:59:30;5.00;;;3.53;;
6300;SDS011;3183;51.010;6.898;2023-04-15T13:01:57;6.13;;;3.60;;
6300;SDS011;3183;51.010;6.898;2023-04-15T13:04:26;3.90;;;3.20;;
6300;SDS011;3183;51.010;6.898;2023-04-15T13:06:54;4.20;;;3.22;;
6300;SDS011;3183;51.010;6.898;2023-04-15T13:09:21;4.13;;;3.37;;
6300;SDS011;3183;51.010;6.898;2023-04-15T13:11:50;5.47;;;3.80;;
6300;SDS011;3183;51.010;6.898;2023-04-15T13:14:18;5.10;;;3.70;;
6300;SDS011;3183;51.010;6.898;2023-04-15T13:16:45;5.13;;;3.53;;
6300;SDS011;3183;51.010;6.898;2023-04-15T13:19:12;3.75;;;3.25;;
6300;SDS011;3183;51.010;6.898;2023-04-15T13:21:39;7.37;;;3.03;;
6300;SDS011;3183;51.010;6.898;2023-04-15T13:24:06;4.10;;;3.27;;
6300;SDS011;3183;51.010;6.898;2023-04-15T13:26:34;5.57;;;3.40;;
6300;SDS011;3183;51.010;6.898;2023-04-15T13:29:03;3.47;;;2.90;;
6300;SDS011;3183;51.010;6.898;2023-04-15T13:31:30;3.70;;;3.20;;
6300;SDS011;3183;51.010;6.898;2023-04-15T13:33:57;5.57;;;3.50;;
6300;SDS011;3183;51.010;6.898;2023-04-15T13:36:25;4.13;;;3.00;;
6300;SDS011;3183;51.010;6.898;2023-04-15T13:38:52;6.30;;;4.03;;
6300;SDS011;3183;51.010;6.898;2023-04-15T13:41:19;8.07;;;5.17;;
6300;SDS011;3183;51.010;6.898;2023-04-15T13:43:46;4.83;;;4.07;;
6300;SDS011;3183;51.010;6.898;2023-04-15T13:46:15;5.60;;;4.13;;
6300;SDS011;3183;51.010;6.898;2023-04-15T13:48:42;6.37;;;3.97;;
6300;SDS011;3183;51.010;6.898;2023-04-15T13:51:09;6.90;;;4.33;;
6300;SDS011;3183;51.010;6.898;2023-04-15T13:53:36;5.73;;;4.20;;
6300;SDS011;3183;51.010;6.898;2023-04-15T13:56:04;6.10;;;4.27;;
6300;SDS011;3183;51.010;6.898;2023-04-15T13:58:31;3.40;;;3.00;;
6300;SDS011;3183;51.010;6.898;2023-04-15T14:00:58;5.37;;;3.67;;
6300;SDS011;3183;51.010;6.898;2023-04-15T14:03:27;5.43;;;3.43;;
6300;SDS011;3183;51.010;6.898;2023-04-15T14:05:54;3.47;;;2.93;;
6300;SDS011;3183;51.010;6.898;2023-04-15T14:08:21;4.03;;;3.40;;
6300;SDS011;3183;51.010;6.898;2023-04-15T14:10:49;4.00;;;3.10;;
6300;SDS011;3183;51.010;6.898;2023-04-15T14:13:16;5.40;;;3.43;;
6300;SDS011;3183;51.010;6.898;2023-04-15T14:15:44;5.95;;;4.00;;
6300;SDS011;3183;51.010;6.898;2023-04-15T14:18:11;5.67;;;4.00;;
6300;SDS011;3183;51.010;6.898;2023-04-15T14:20:39;4.78;;;3.55;;
6300;SDS011;3183;51.010;6.898;2023-04-15T14:23:07;4.43;;;3.50;;
6300;SDS011;3183;51.010;6.898;2023-04-15T14:25:34;7.37;;;4.70;;
6300;SDS011;3183;51.010;6.898;2023-04-15T14:28:03;4.97;;;4.00;;
6300;SDS011;3183;51.010;6.898;2023-04-15T14:30:30;6.37;;;4.23;;
6300;SDS011;3183;51.010;6.898;2023-04-15T14:32:57;8.20;;;5.50;;
6300;SDS011;3183;51.010;6.898;2023-04-15T14:35:24;9.02;;;5.55;;
6300;SDS011;3183;51.010;6.898;2023-04-15T14:37:53;7.37;;;4.83;;
6300;SDS011;3183;51.010;6.898;2023-04-15T14:40:20;7.38;;;5.55;;
6300;SDS011;3183;51.010;6.898;2023-04-15T14:42:47;8.20;;;5.43;;
6300;SDS011;3183;51.010;6.898;2023-04-15T14:45:15;13.90;;;4.50;;
6300;SDS011;3183;51.010;6.898;2023-04-15T14:47:42;7.20;;;4.10;;
6300;SDS011;3183;51.010;6.898;2023-04-15T14:50:09;10.00;;;4.90;;
6300;SDS011;3183;51.010;6.898;2023-04-15T14:52:36;10.67;;;4.73;;
6300;SDS011;3183;51.010;6.898;2023-04-15T14:55:06;7.47;;;4.50;;
6300;SDS011;3183;51.010;6.898;2023-04-15T14:57:34;8.27;;;5.10;;
6300;SDS011;3183;51.010;6.898;2023-04-15T15:00:01;8.97;;;6.47;;
6300;SDS011;3183;51.010;6.898;2023-04-15T15:02:29;14.07;;;8.07;;
6300;SDS011;3183;51.010;6.898;2023-04-15T15:04:56;15.63;;;12.23;;
6300;SDS011;3183;51.010;6.898;2023-04-15T15:07:23;16.60;;;11.77;;
6300;SDS011;3183;51.010;6.898;2023-04-15T15:09:51;17.50;;;10.60;;
6300;SDS011;3183;51.010;6.898;2023-04-15T15:12:19;15.67;;;9.90;;
6300;SDS011;3183;51.010;6.898;2023-04-15T15:14:47;12.20;;;8.37;;
6300;SDS011;3183;51.010;6.898;2023-04-15T15:17:14;13.03;;;7.90;;